Time;durP1;ratioP1;P1;durP2;ratioP2;P2;SDS_P1;SDS_P2;PMS_P1;PMS_P2;Temp;Humidity;BMP_temperature;BMP_pressure;BME280_temperature;BME280_humidity;BME280_pressure;Samples;Min_cycle;Max_cycle;Signal;HPM_P1;HPM_P2
2022/09/25 00:01:32;;;;;;;5.43;2.55;;;20.20;64.90;;;;;;5041548;28;20029;-61
2022/09/25 00:03:58;;;;;;;6.05;2.60;;;20.20;65.00;;;;;;5047481;28;20489;-61
2022/09/25 00:06:24;;;;;;;5.03;2.40;;;20.20;64.90;;;;;;5046015;28;20021;-61
2022/09/25 00:08:50;;;;;;;6.82;2.75;;;20.20;65.00;;;;;;5047062;28;20029;-61
2022/09/25 00:11:18;;;;;;;4.85;2.40;;;20.20;65.00;;;;;;5045544;28;20143;-61
2022/09/25 00:13:44;;;;;;;6.53;2.30;;;20.20;65.00;;;;;;5046915;28;20812;-61
2022/09/25 00:16:15;;;;;;;6.20;2.30;;;20.20;65.00;;;;;;5048310;28;20508;-61
2022/09/25 00:21:29;;;;;;;6.03;2.33;;;20.20;65.00;;;;;;5043983;28;20098;-61
2022/09/25 00:23:56;;;;;;;4.65;2.08;;;20.20;65.00;;;;;;5047845;28;20112;-61
2022/09/25 00:26:21;;;;;;;5.85;2.25;;;20.20;65.00;;;;;;5045968;28;20017;-61
2022/09/25 00:28:47;;;;;;;5.45;2.40;;;20.20;65.00;;;;;;5041614;28;20028;-61
2022/09/25 00:31:18;;;;;;;5.15;2.10;;;20.10;64.90;;;;;;5047204;28;20025;-61
2022/09/25 00:33:43;;;;;;;5.65;2.45;;;20.20;65.00;;;;;;5045822;28;20037;-60
2022/09/25 00:36:09;;;;;;;5.70;2.40;;;20.10;65.00;;;;;;5045167;28;20027;-61
2022/09/25 00:38:36;;;;;;;5.47;2.13;;;20.20;65.00;;;;;;5045775;28;20472;-61
2022/09/25 00:41:02;;;;;;;5.65;2.25;;;20.10;65.30;;;;;;5048617;28;20584;-61
2022/09/25 00:43:43;;;;;;;4.25;2.33;;;20.10;65.00;;;;;;5044936;28;20025;-61
2022/09/25 00:46:21;;;;;;;4.40;2.10;;;20.10;65.00;;;;;;5040293;28;20052;-60
2022/09/25 00:49:02;;;;;;;4.63;2.00;;;20.10;65.00;;;;;;5047920;28;20558;-61
2022/09/25 00:51:31;;;;;;;4.50;2.17;;;20.10;65.00;;;;;;5037605;28;20028;-61
2022/09/25 00:53:57;;;;;;;5.60;2.20;;;20.10;65.00;;;;;;5048554;28;20427;-60
2022/09/25 00:56:23;;;;;;;5.65;2.28;;;20.10;65.00;;;;;;5045111;28;20574;-61
2022/09/25 00:58:49;;;;;;;4.57;2.25;;;20.10;65.10;;;;;;5042308;28;20013;-60
2022/09/25 01:01:14;;;;;;;4.22;2.08;;;20.10;65.10;;;;;;5043262;28;20033;-61
2022/09/25 01:03:40;;;;;;;4.72;1.90;;;20.10;65.10;;;;;;5042995;28;20397;-60
2022/09/25 01:06:07;;;;;;;3.80;2.03;;;20.00;65.10;;;;;;5033886;28;20029;-61
2022/09/25 01:08:32;;;;;;;4.70;1.90;;;20.10;65.10;;;;;;5037147;28;20525;-61
2022/09/25 01:10:58;;;;;;;4.93;2.20;;;20.00;65.10;;;;;;5039254;28;20098;-61
2022/09/25 01:13:23;;;;;;;5.85;2.10;;;20.00;65.10;;;;;;5037837;28;20452;-61
2022/09/25 01:15:55;;;;;;;4.72;1.90;;;20.00;65.10;;;;;;5038803;28;20021;-60
2022/09/25 01:19:11;;;;;;;4.40;1.92;;;20.00;65.10;;;;;;5037766;28;20029;-61
2022/09/25 01:21:48;;;;;;;4.18;2.03;;;20.00;65.10;;;;;;4998077;28;20145;-61
2022/09/25 01:24:23;;;;;;;4.65;2.10;;;20.00;65.10;;;;;;4981535;28;20034;-61
2022/09/25 01:27:16;;;;;;;4.22;1.90;;;20.00;65.10;;;;;;4995707;28;20053;-61
2022/09/25 01:29:48;;;;;;;4.78;2.13;;;20.00;65.10;;;;;;4999596;28;20045;-61
2022/09/25 01:32:25;;;;;;;4.07;1.90;;;20.00;65.10;;;;;;4978395;28;20042;-60
2022/09/25 01:35:09;;;;;;;4.07;1.98;;;20.00;65.20;;;;;;4978287;28;20030;-61
2022/09/25 01:38:01;;;;;;;3.90;1.90;;;20.00;65.20;;;;;;4999572;28;20075;-61
2022/09/25 01:40:42;;;;;;;4.95;2.10;;;20.00;65.20;;;;;;4995841;28;20038;-61
2022/09/25 01:43:17;;;;;;;5.07;2.20;;;20.00;65.20;;;;;;5000612;28;20605;-61
2022/09/25 01:45:57;;;;;;;5.50;2.20;;;19.90;65.20;;;;;;4995264;28;20155;-61
2022/09/25 01:48:25;;;;;;;4.45;1.88;;;19.90;65.10;;;;;;5015860;28;20620;-61
2022/09/25 01:51:02;;;;;;;4.78;2.13;;;20.00;65.20;;;;;;4987495;28;20060;-61
2022/09/25 01:53:36;;;;;;;4.15;2.03;;;20.00;65.20;;;;;;4984410;28;20038;-61
2022/09/25 01:56:05;;;;;;;4.63;2.00;;;19.90;65.20;;;;;;4993398;28;20065;-61
2022/09/25 01:58:35;;;;;;;4.78;1.92;;;19.90;65.20;;;;;;5026622;28;20112;-61
2022/09/25 02:01:05;;;;;;;3.50;1.80;;;19.90;65.10;;;;;;5040234;28;20998;-61
2022/09/25 02:03:38;;;;;;;5.03;2.05;;;20.00;65.20;;;;;;5043280;28;20029;-61
2022/09/25 02:06:05;;;;;;;4.75;2.08;;;19.90;65.20;;;;;;5037403;28;20117;-61
2022/09/25 02:08:39;;;;;;;4.93;2.10;;;19.90;65.20;;;;;;5038080;28;20025;-61
2022/09/25 02:11:05;;;;;;;4.65;2.00;;;19.90;65.20;;;;;;5022510;28;20393;-61
2022/09/25 02:13:38;;;;;;;4.50;1.90;;;19.90;65.20;;;;;;5035545;28;20021;-61
2022/09/25 02:16:08;;;;;;;4.30;1.83;;;19.90;65.20;;;;;;5018901;28;20028;-61
2022/09/25 02:21:30;;;;;;;4.90;1.90;;;19.90;65.20;;;;;;5027051;28;20102;-61
2022/09/25 02:24:04;;;;;;;5.18;1.90;;;19.90;65.30;;;;;;5045402;28;20037;-61
2022/09/25 02:26:31;;;;;;;3.47;1.75;;;19.90;65.20;;;;;;5034007;28;20502;-61
2022/09/25 02:28:57;;;;;;;2.55;1.60;;;19.90;65.20;;;;;;5042758;28;20032;-61
2022/09/25 02:31:29;;;;;;;5.20;2.00;;;19.90;65.20;;;;;;5039075;28;20112;-61
2022/09/25 02:33:56;;;;;;;5.10;1.98;;;19.90;65.30;;;;;;5040936;28;20024;-61
2022/09/25 02:36:22;;;;;;;4.72;1.90;;;19.90;66.30;;;;;;5041224;28;20607;-61
2022/09/25 02:38:48;;;;;;;4.45;1.70;;;19.80;65.30;;;;;;5042629;28;20189;-61
2022/09/25 02:41:47;;;;;;;3.13;1.60;;;19.80;65.30;;;;;;5033392;28;20049;-61
2022/09/25 02:44:24;;;;;;;4.20;1.83;;;19.90;65.30;;;;;;5018155;28;20029;-61
2022/09/25 02:47:24;;;;;;;3.85;1.85;;;19.80;65.20;;;;;;5019380;28;20306;-61
2022/09/25 02:50:06;;;;;;;3.55;1.70;;;19.80;65.20;;;;;;5001410;28;20037;-61
2022/09/25 02:52:37;;;;;;;3.63;1.80;;;19.80;65.30;;;;;;5005379;28;20677;-61
2022/09/25 02:55:10;;;;;;;4.07;1.88;;;19.80;65.30;;;;;;5019635;28;20116;-61
2022/09/25 02:57:51;;;;;;;4.45;1.90;;;19.80;65.30;;;;;;5019172;28;20032;-61
2022/09/25 03:00:16;;;;;;;2.85;1.70;;;19.80;65.30;;;;;;5033543;28;20145;-61
2022/09/25 03:02:42;;;;;;;4.15;1.80;;;19.80;65.30;;;;;;5020989;28;20711;-60
2022/09/25 03:05:10;;;;;;;3.85;1.80;;;19.80;65.30;;;;;;5016777;28;20041;-61
2022/09/25 03:08:36;;;;;;;3.55;1.90;;;19.80;65.30;;;;;;5036634;28;20046;-61
2022/09/25 03:10:21;;;;;;;2.92;1.58;;;19.80;65.30;;;;;;5003879;28;20064;-61
2022/09/25 03:12:47;;;;;;;5.47;1.98;;;19.80;65.30;;;;;;5024234;28;20493;-61
2022/09/25 03:15:13;;;;;;;4.03;1.70;;;19.80;65.30;;;;;;5018591;28;20053;-61
2022/09/25 03:17:38;;;;;;;3.65;1.70;;;19.80;65.40;;;;;;5018800;28;20444;-61
2022/09/25 03:20:05;;;;;;;3.70;1.70;;;19.70;65.30;;;;;;5020113;28;20034;-61
2022/09/25 03:22:31;;;;;;;3.83;1.80;;;19.70;65.30;;;;;;5040251;28;20033;-61
2022/09/25 03:24:57;;;;;;;4.07;1.65;;;19.70;65.40;;;;;;5045081;28;20112;-61
2022/09/25 03:27:26;;;;;;;5.07;1.73;;;19.70;65.30;;;;;;5045968;28;20028;-61
2022/09/25 03:29:54;;;;;;;2.72;1.50;;;19.70;65.30;;;;;;5042398;28;20461;-61
2022/09/25 03:32:20;;;;;;;3.75;1.55;;;19.70;65.40;;;;;;5040315;28;20025;-60
2022/09/25 03:34:45;;;;;;;3.20;1.60;;;19.70;65.40;;;;;;5044642;28;20115;-61
2022/09/25 03:37:11;;;;;;;3.95;1.50;;;19.70;65.40;;;;;;5045005;28;20535;-61
2022/09/25 03:39:36;;;;;;;3.50;1.80;;;19.70;65.40;;;;;;5039983;28;20036;-61
2022/09/25 03:42:03;;;;;;;3.92;1.50;;;19.70;65.40;;;;;;5043826;28;20039;-61
2022/09/25 03:44:29;;;;;;;2.95;1.52;;;19.70;65.40;;;;;;5044816;28;20067;-61
2022/09/25 03:46:54;;;;;;;2.70;1.50;;;19.70;65.40;;;;;;5041243;28;20025;-61
2022/09/25 03:49:21;;;;;;;3.60;1.63;;;19.70;65.40;;;;;;5041578;28;20029;-60
2022/09/25 03:51:46;;;;;;;5.32;1.85;;;19.70;65.50;;;;;;5039939;28;20041;-61
2022/09/25 03:54:12;;;;;;;2.35;1.52;;;19.70;66.40;;;;;;5041497;28;20029;-61
2022/09/25 03:56:38;;;;;;;2.05;1.50;;;19.70;65.40;;;;;;5045679;28;20147;-61
2022/09/25 03:59:04;;;;;;;2.83;1.58;;;19.60;65.50;;;;;;5044929;28;20033;-61
2022/09/25 04:01:30;;;;;;;3.08;1.52;;;19.70;65.50;;;;;;5039752;28;20087;-61
2022/09/25 04:03:55;;;;;;;3.65;1.50;;;19.60;65.40;;;;;;5040459;28;20036;-61
2022/09/25 04:06:23;;;;;;;4.75;1.75;;;19.60;65.40;;;;;;5045143;28;20436;-61
2022/09/25 04:08:48;;;;;;;3.97;1.73;;;19.60;65.40;;;;;;5043127;28;20021;-60
2022/09/25 04:11:18;;;;;;;3.40;1.52;;;19.60;65.40;;;;;;5047210;28;20024;-61
2022/09/25 04:13:44;;;;;;;3.13;1.60;;;19.60;65.40;;;;;;5046916;28;20033;-61
2022/09/25 04:16:10;;;;;;;2.15;1.48;;;19.60;65.50;;;;;;5043151;28;20098;-61
2022/09/25 04:18:36;;;;;;;3.78;1.60;;;19.60;65.40;;;;;;5045082;28;20568;-61
2022/09/25 04:21:07;;;;;;;4.13;1.75;;;19.60;65.50;;;;;;5046853;28;20037;-61
2022/09/25 04:23:33;;;;;;;2.90;1.70;;;19.60;65.50;;;;;;5046740;28;20090;-61
2022/09/25 04:25:58;;;;;;;4.50;1.70;;;19.60;65.50;;;;;;5047176;28;20033;-61
2022/09/25 04:28:24;;;;;;;2.53;1.40;;;19.60;65.40;;;;;;5043635;28;20055;-61
2022/09/25 04:30:50;;;;;;;2.13;1.48;;;19.60;65.40;;;;;;5046334;28;20021;-61
2022/09/25 04:36:00;;;;;;;3.50;1.60;;;19.60;65.50;;;;;;5044748;28;20448;-61
2022/09/25 04:38:26;;;;;;;2.67;1.50;;;19.60;65.50;;;;;;5048500;28;20034;-61
2022/09/25 04:40:52;;;;;;;4.18;1.60;;;19.60;65.50;;;;;;5044727;28;20501;-61
2022/09/25 04:43:17;;;;;;;3.13;1.50;;;19.60;65.50;;;;;;5045766;28;20460;-61
2022/09/25 04:45:45;;;;;;;2.95;1.52;;;19.50;65.50;;;;;;5040191;28;20556;-61
2022/09/25 04:48:11;;;;;;;4.22;1.70;;;19.60;65.50;;;;;;5041982;28;20523;-61
2022/09/25 04:50:38;;;;;;;3.47;1.60;;;19.60;65.50;;;;;;5050884;28;20032;-61
2022/09/25 04:53:03;;;;;;;3.10;1.60;;;19.60;65.50;;;;;;5048836;28;20029;-61
2022/09/25 04:55:29;;;;;;;3.40;1.42;;;19.60;65.50;;;;;;5047153;28;20051;-61
2022/09/25 04:57:58;;;;;;;2.78;1.40;;;19.50;65.50;;;;;;5047961;28;20029;-61
2022/09/25 05:00:25;;;;;;;2.88;1.38;;;19.60;65.50;;;;;;5046423;28;20047;-61
2022/09/25 05:02:51;;;;;;;3.53;1.38;;;19.50;65.50;;;;;;5046057;28;20029;-61
2022/09/25 05:05:18;;;;;;;3.30;1.70;;;19.50;65.40;;;;;;5043401;28;20097;-61
2022/09/25 05:07:51;;;;;;;2.42;1.50;;;19.50;65.50;;;;;;5046588;28;20108;-61
2022/09/25 05:10:19;;;;;;;2.38;1.30;;;19.50;65.50;;;;;;5045049;28;20029;-61
2022/09/25 05:12:46;;;;;;;3.67;1.48;;;19.50;65.50;;;;;;5041498;28;20043;-61
2022/09/25 05:15:12;;;;;;;1.95;1.40;;;19.50;65.50;;;;;;5039971;28;20045;-61
2022/09/25 05:17:37;;;;;;;3.28;1.60;;;19.50;65.50;;;;;;5040234;28;20508;-61
2022/09/25 05:20:03;;;;;;;3.28;1.45;;;19.50;65.50;;;;;;5039367;28;20049;-61
2022/09/25 05:22:29;;;;;;;2.15;1.33;;;19.50;65.60;;;;;;5044656;28;20021;-61
2022/09/25 05:24:55;;;;;;;3.30;1.50;;;19.50;65.60;;;;;;5037970;28;20398;-61
2022/09/25 05:27:22;;;;;;;3.20;1.40;;;19.50;65.50;;;;;;5041675;28;20560;-61
2022/09/25 05:29:48;;;;;;;1.85;1.30;;;19.50;65.60;;;;;;5045682;28;20044;-61
2022/09/25 05:32:14;;;;;;;3.50;1.58;;;19.50;65.60;;;;;;5043337;28;20029;-61
2022/09/25 05:34:40;;;;;;;2.92;1.40;;;19.50;65.70;;;;;;5040145;28;20099;-61
2022/09/25 05:37:06;;;;;;;4.43;1.50;;;19.50;65.70;;;;;;5038874;28;20462;-61
2022/09/25 05:39:32;;;;;;;2.97;1.30;;;19.50;65.60;;;;;;5041298;28;21795;-61
2022/09/25 05:41:57;;;;;;;3.03;1.27;;;19.50;65.70;;;;;;5040281;28;20037;-61
2022/09/25 05:44:25;;;;;;;3.70;1.52;;;19.50;65.60;;;;;;5045643;28;20025;-61
2022/09/25 05:46:50;;;;;;;3.83;1.50;;;19.50;65.70;;;;;;5048017;28;20059;-61
2022/09/25 05:49:16;;;;;;;2.53;1.10;;;19.40;65.60;;;;;;5045135;28;20013;-61
2022/09/25 05:51:41;;;;;;;3.85;1.55;;;19.50;65.70;;;;;;5044033;28;20557;-61
2022/09/25 05:54:07;;;;;;;2.80;1.40;;;19.40;65.60;;;;;;5037278;28;20025;-61
2022/09/25 05:56:33;;;;;;;3.05;1.23;;;19.40;65.70;;;;;;5040920;28;20029;-61
2022/09/25 05:58:58;;;;;;;3.67;1.60;;;19.50;65.70;;;;;;5045111;28;20017;-61
2022/09/25 06:01:24;;;;;;;3.25;1.55;;;19.40;65.60;;;;;;5047328;28;20498;-61
2022/09/25 06:03:52;;;;;;;2.67;1.50;;;19.40;65.70;;;;;;5044909;28;20021;-61
2022/09/25 06:06:17;;;;;;;2.10;1.20;;;19.40;65.70;;;;;;5046006;28;20033;-61
2022/09/25 06:08:43;;;;;;;3.42;1.60;;;19.40;65.70;;;;;;5044390;28;20091;-61
2022/09/25 06:11:10;;;;;;;2.47;1.20;;;19.40;65.70;;;;;;5044277;28;20037;-61
2022/09/25 06:13:36;;;;;;;2.50;1.20;;;19.40;65.70;;;;;;5045983;28;20472;-61
2022/09/25 06:16:04;;;;;;;2.63;1.42;;;19.40;65.70;;;;;;5046437;28;20642;-61
2022/09/25 06:18:30;;;;;;;3.67;1.67;;;19.40;65.70;;;;;;5045407;28;20037;-61
2022/09/25 06:21:01;;;;;;;1.75;1.15;;;19.40;65.70;;;;;;5044659;28;20037;-61
2022/09/25 06:23:27;;;;;;;2.15;1.30;;;19.40;65.70;;;;;;5045749;28;20113;-61
2022/09/25 06:25:52;;;;;;;2.88;1.30;;;19.40;65.80;;;;;;5042759;28;20187;-61
2022/09/25 06:28:18;;;;;;;1.83;1.30;;;19.40;65.80;;;;;;5036886;28;20515;-61
2022/09/25 06:30:44;;;;;;;1.35;1.02;;;19.40;65.80;;;;;;5041651;28;20512;-61
2022/09/25 06:33:12;;;;;;;2.58;1.42;;;19.40;65.80;;;;;;5042151;28;20505;-61
2022/09/25 06:35:42;;;;;;;2.15;1.25;;;19.40;65.80;;;;;;5045234;28;20102;-61
2022/09/25 06:38:08;;;;;;;2.58;1.27;;;19.40;65.80;;;;;;5045655;28;20028;-61
2022/09/25 06:40:33;;;;;;;2.50;1.33;;;19.40;65.80;;;;;;5046680;28;20078;-61
2022/09/25 06:43:00;;;;;;;2.40;1.15;;;19.40;65.80;;;;;;5044454;28;20028;-61
2022/09/25 06:45:27;;;;;;;4.95;1.70;;;19.40;65.80;;;;;;5044198;28;20091;-61
2022/09/25 06:47:56;;;;;;;2.25;1.40;;;19.40;65.80;;;;;;5040786;28;20036;-61
2022/09/25 06:50:24;;;;;;;3.75;1.45;;;19.40;65.80;;;;;;5045038;28;20485;-61
2022/09/25 06:52:50;;;;;;;2.35;1.27;;;19.40;65.80;;;;;;5042778;28;20036;-61
2022/09/25 06:55:16;;;;;;;2.22;1.15;;;19.40;65.80;;;;;;5043857;28;20029;-61
2022/09/25 06:57:41;;;;;;;1.92;1.20;;;19.40;65.80;;;;;;5044969;28;20032;-61
2022/09/25 07:00:07;;;;;;;3.03;1.25;;;19.40;65.80;;;;;;5036499;28;20045;-62
2022/09/25 07:05:17;;;;;;;2.13;1.27;;;19.40;65.90;;;;;;5043814;28;20068;-62
2022/09/25 07:07:44;;;;;;;4.45;1.50;;;19.40;66.00;;;;;;5042031;28;20315;-62
2022/09/25 07:10:10;;;;;;;1.83;1.20;;;19.40;65.90;;;;;;5045907;28;20025;-62
2022/09/25 07:12:41;;;;;;;3.30;1.40;;;19.40;66.00;;;;;;5043479;28;20044;-62
2022/09/25 07:15:07;;;;;;;2.78;1.48;;;19.40;66.10;;;;;;5044997;28;20027;-62
2022/09/25 07:17:33;;;;;;;3.60;1.38;;;19.40;66.10;;;;;;5042684;28;20025;-62
2022/09/25 07:19:59;;;;;;;2.80;1.25;;;19.40;66.20;;;;;;5025647;28;20120;-62
2022/09/25 07:22:25;;;;;;;2.10;1.33;;;19.40;66.10;;;;;;5045817;28;20545;-61
2022/09/25 07:24:51;;;;;;;2.53;1.27;;;19.40;66.10;;;;;;5045858;28;20044;-61
2022/09/25 07:27:16;;;;;;;4.00;1.30;;;19.40;66.20;;;;;;5046783;28;20021;-62
2022/09/25 07:29:42;;;;;;;3.38;1.60;;;19.40;66.20;;;;;;5041744;28;20028;-61
2022/09/25 07:32:09;;;;;;;4.38;1.42;;;19.40;66.20;;;;;;5045703;28;20132;-62
2022/09/25 07:34:36;;;;;;;3.85;1.40;;;19.40;66.30;;;;;;5046670;28;20025;-62
2022/09/25 07:37:02;;;;;;;4.85;1.48;;;19.40;66.20;;;;;;5043664;28;20064;-62
2022/09/25 07:39:30;;;;;;;2.67;1.20;;;19.50;66.20;;;;;;5048359;28;20280;-62
2022/09/25 07:41:56;;;;;;;3.83;1.27;;;19.50;66.20;;;;;;5045711;28;20041;-62
2022/09/25 07:44:22;;;;;;;3.03;1.20;;;19.50;66.10;;;;;;5047560;28;20041;-60
2022/09/25 07:46:47;;;;;;;5.35;1.42;;;19.50;66.20;;;;;;5046579;28;20568;-62
2022/09/25 07:49:13;;;;;;;4.07;1.60;;;19.50;66.10;;;;;;5044442;28;20107;-62
2022/09/25 07:51:39;;;;;;;3.50;1.30;;;19.50;66.10;;;;;;5043654;28;20029;-63
2022/09/25 07:54:04;;;;;;;5.78;1.80;;;19.50;66.00;;;;;;5049370;28;20059;-62
2022/09/25 07:56:33;;;;;;;8.65;1.30;;;19.50;66.10;;;;;;5046047;28;20033;-62
2022/09/25 07:58:59;;;;;;;3.90;1.33;;;19.50;66.00;;;;;;5046772;28;20067;-62
2022/09/25 08:01:28;;;;;;;4.03;1.10;;;19.50;66.00;;;;;;5040523;28;20117;-62
2022/09/25 08:03:53;;;;;;;2.35;1.30;;;19.50;66.00;;;;;;5037824;28;20063;-62
2022/09/25 08:06:19;;;;;;;3.75;1.30;;;19.50;66.00;;;;;;5039873;28;20060;-62
2022/09/25 08:08:47;;;;;;;4.05;1.40;;;19.50;66.00;;;;;;5043922;28;20091;-62
2022/09/25 08:11:14;;;;;;;10.95;1.30;;;19.60;66.10;;;;;;5037467;28;20060;-62
2022/09/25 08:13:40;;;;;;;4.20;1.30;;;19.60;66.10;;;;;;5040858;28;20057;-62
2022/09/25 08:16:12;;;;;;;6.95;1.60;;;19.60;66.20;;;;;;5048664;28;20037;-62
2022/09/25 08:18:41;;;;;;;5.32;1.42;;;19.60;66.20;;;;;;5044423;28;20551;-61
2022/09/25 08:21:07;;;;;;;5.28;1.45;;;19.60;66.10;;;;;;5044277;28;20125;-61
2022/09/25 08:23:32;;;;;;;5.07;1.50;;;19.60;66.20;;;;;;5038927;28;20028;-62
2022/09/25 08:25:58;;;;;;;4.35;1.38;;;19.60;66.20;;;;;;5045576;28;20509;-62
2022/09/25 08:28:24;;;;;;;5.78;1.33;;;19.60;66.20;;;;;;5047199;28;20025;-61
2022/09/25 08:30:50;;;;;;;6.15;1.50;;;19.60;66.20;;;;;;5029905;28;20033;-62
2022/09/25 08:33:16;;;;;;;5.13;1.42;;;19.60;66.20;;;;;;5042261;28;20037;-61
2022/09/25 08:35:42;;;;;;;4.47;1.40;;;19.60;66.20;;;;;;5029276;28;20036;-61
2022/09/25 08:38:11;;;;;;;7.80;1.55;;;19.60;66.20;;;;;;5044765;28;20075;-62
2022/09/25 08:40:52;;;;;;;13.95;2.03;;;19.60;66.10;;;;;;5039606;28;20047;-61
2022/09/25 08:43:20;;;;;;;5.10;1.58;;;19.60;66.10;;;;;;5045482;28;20020;-62
2022/09/25 08:49:01;;;;;;;5.80;1.20;;;19.70;65.90;;;;;;5030960;28;20515;-62
2022/09/25 08:51:40;;;;;;;5.45;1.42;;;19.60;65.90;;;;;;5030113;28;20082;-62
2022/09/25 08:54:07;;;;;;;7.22;1.50;;;19.60;65.90;;;;;;5046853;28;20111;-62
2022/09/25 08:56:34;;;;;;;8.48;1.75;;;19.60;65.90;;;;;;5045845;28;20456;-62
2022/09/25 08:59:10;;;;;;;6.18;1.40;;;19.60;65.90;;;;;;5028746;28;20025;-62
2022/09/25 09:01:59;;;;;;;5.85;1.50;;;19.60;65.80;;;;;;5047494;28;20075;-62
2022/09/25 09:04:25;;;;;;;6.15;1.33;;;19.60;65.80;;;;;;5045688;28;20386;-63
2022/09/25 09:06:53;;;;;;;7.38;1.60;;;19.60;65.80;;;;;;5047421;28;20086;-62
2022/09/25 09:09:23;;;;;;;8.40;1.33;;;19.60;65.70;;;;;;5046511;28;20488;-62
2022/09/25 09:11:58;;;;;;;6.88;1.38;;;19.60;65.90;;;;;;5048067;28;20037;-62
2022/09/25 09:14:25;;;;;;;11.30;1.67;;;19.60;66.10;;;;;;5046558;28;20032;-62
2022/09/25 09:16:54;;;;;;;13.50;1.85;;;19.60;66.10;;;;;;5071466;28;20029;-62
2022/09/25 09:19:20;;;;;;;10.50;1.55;;;19.60;66.10;;;;;;5048591;28;20103;-62
2022/09/25 09:21:47;;;;;;;12.23;2.00;;;19.70;66.80;;;;;;5050336;28;20124;-62
2022/09/25 09:24:18;;;;;;;8.68;1.65;;;19.70;67.20;;;;;;5048096;28;20037;-62
2022/09/25 09:26:58;;;;;;;10.05;1.95;;;19.70;67.20;;;;;;5049827;28;20117;-62
2022/09/25 09:29:36;;;;;;;17.77;2.00;;;19.70;66.80;;;;;;5049003;28;20078;-62
2022/09/25 09:32:34;;;;;;;9.40;1.95;;;19.70;66.60;;;;;;5046969;28;20029;-62
2022/09/25 09:35:06;;;;;;;18.75;2.35;;;19.70;66.40;;;;;;5047149;28;20023;-62
2022/09/25 09:37:48;;;;;;;11.82;2.05;;;19.70;66.30;;;;;;5049563;28;20060;-62
2022/09/25 09:40:38;;;;;;;16.63;2.20;;;19.70;66.40;;;;;;5043818;28;20041;-62
2022/09/25 09:43:19;;;;;;;12.45;1.65;;;19.70;66.40;;;;;;5033127;28;20116;-62
2022/09/25 09:45:48;;;;;;;12.63;2.35;;;19.70;66.30;;;;;;5049003;28;20044;-61
2022/09/25 09:48:51;;;;;;;11.00;2.05;;;19.70;66.30;;;;;;5048096;28;20099;-62
2022/09/25 09:51:22;;;;;;;10.07;2.35;;;19.70;66.20;;;;;;5023296;28;20447;-62
2022/09/25 09:53:57;;;;;;;12.57;2.40;;;19.70;66.10;;;;;;5008000;28;20442;-62
2022/09/25 09:56:27;;;;;;;12.50;2.75;;;19.70;66.00;;;;;;5020909;28;20041;-62
2022/09/25 09:58:57;;;;;;;13.52;2.38;;;19.70;66.20;;;;;;5006268;28;20026;-62
2022/09/25 10:01:25;;;;;;;12.60;2.20;;;19.70;66.20;;;;;;5017004;28;20038;-62
2022/09/25 10:04:06;;;;;;;9.05;2.33;;;19.70;66.50;;;;;;5005715;28;20053;-62
2022/09/25 10:06:39;;;;;;;15.30;2.70;;;19.70;66.80;;;;;;5018178;28;20482;-62
2022/09/25 10:09:07;;;;;;;12.30;2.70;;;19.70;67.40;;;;;;4983851;28;20042;-62
2022/09/25 10:11:32;;;;;;;14.07;2.50;;;19.60;65.80;;;;;;5020689;28;20021;-62
2022/09/25 10:13:58;;;;;;;12.30;2.13;;;19.60;64.60;;;;;;5019019;28;20772;-62
2022/09/25 10:16:24;;;;;;;9.77;1.83;;;19.60;64.30;;;;;;5001814;28;20034;-61
2022/09/25 10:19:20;;;;;;;10.77;2.15;;;19.50;64.70;;;;;;4990675;28;20041;-62
2022/09/25 10:22:04;;;;;;;10.25;1.88;;;19.60;65.80;;;;;;5023334;28;20053;-62
2022/09/25 10:24:51;;;;;;;11.73;2.30;;;19.60;65.80;;;;;;4988347;28;20485;-62
2022/09/25 10:27:44;;;;;;;13.30;2.10;;;19.70;65.70;;;;;;5014307;28;20105;-63
2022/09/25 10:30:10;;;;;;;9.50;1.83;;;19.80;65.70;;;;;;5033871;28;20040;-62
2022/09/25 10:33:12;;;;;;;11.80;1.77;;;19.80;65.80;;;;;;5043512;28;20025;-62
2022/09/25 10:35:37;;;;;;;10.20;2.03;;;19.80;65.80;;;;;;5044808;28;20547;-62
2022/09/25 10:38:04;;;;;;;11.68;2.33;;;19.90;65.80;;;;;;5042077;28;20085;-62
2022/09/25 10:40:33;;;;;;;10.32;2.15;;;19.90;65.50;;;;;;5039774;28;20547;-62
2022/09/25 10:43:10;;;;;;;9.50;1.95;;;19.90;65.30;;;;;;5043285;28;20440;-62
2022/09/25 10:45:39;;;;;;;11.93;1.90;;;20.00;65.00;;;;;;5035444;28;20025;-62
2022/09/25 10:51:10;;;;;;;7.75;1.60;;;20.00;64.70;;;;;;5043619;28;20047;-62
2022/09/25 10:53:35;;;;;;;6.75;1.67;;;20.10;64.40;;;;;;5041861;28;20429;-62
2022/09/25 10:56:07;;;;;;;10.48;1.80;;;20.00;64.40;;;;;;5041882;28;20029;-62
2022/09/25 10:58:52;;;;;;;6.43;1.65;;;20.00;64.40;;;;;;5037713;28;20029;-62
2022/09/25 11:01:18;;;;;;;10.48;1.85;;;20.00;64.30;;;;;;5038249;28;20052;-62
2022/09/25 11:03:51;;;;;;;9.82;1.88;;;20.10;64.10;;;;;;5042158;28;20032;-62
2022/09/25 11:06:24;;;;;;;9.25;1.80;;;20.10;64.00;;;;;;5041318;28;20174;-62
2022/09/25 11:09:16;;;;;;;7.68;1.67;;;20.10;64.10;;;;;;5041225;28;20497;-62
2022/09/25 11:11:43;;;;;;;8.40;1.50;;;20.10;63.90;;;;;;5043226;28;20041;-62
2022/09/25 11:14:32;;;;;;;14.32;2.10;;;20.10;63.90;;;;;;5042029;28;20025;-62
2022/09/25 11:16:59;;;;;;;16.73;2.25;;;20.10;63.70;;;;;;5040708;28;20485;-62
2022/09/25 11:19:32;;;;;;;8.20;1.83;;;20.10;63.70;;;;;;5043678;28;20037;-62
2022/09/25 11:22:14;;;;;;;12.25;1.90;;;20.10;63.60;;;;;;5042649;28;20755;-62
2022/09/25 11:24:49;;;;;;;16.40;2.10;;;20.10;63.90;;;;;;5039671;28;20045;-62
2022/09/25 11:27:21;;;;;;;;;;;20.10;63.90;;;;;;5044322;28;20028;-62
2022/09/25 11:29:53;;;;;;;9.23;1.55;;;20.20;63.90;;;;;;5045368;28;19948;-62
2022/09/25 11:32:38;;;;;;;9.77;1.80;;;20.30;63.80;;;;;;5045968;28;20064;-62
2022/09/25 11:35:26;;;;;;;14.35;1.67;;;20.30;63.90;;;;;;5041967;28;20029;-62
2022/09/25 11:38:12;;;;;;;12.98;1.92;;;20.30;63.80;;;;;;5043114;28;20021;-61
2022/09/25 11:43:45;;;;;;;10.75;2.00;;;20.50;63.90;;;;;;5048309;28;20124;-62
2022/09/25 11:46:20;;;;;;;8.18;1.52;;;20.50;64.40;;;;;;5042067;28;20041;-62
2022/09/25 11:49:07;;;;;;;12.05;1.90;;;20.60;64.40;;;;;;5036716;28;20486;-62
2022/09/25 11:52:02;;;;;;;9.38;2.08;;;20.60;64.30;;;;;;5047630;28;20111;-62
2022/09/25 11:54:28;;;;;;;11.88;2.05;;;20.70;64.20;;;;;;5044427;28;20533;-62
2022/09/25 11:57:03;;;;;;;10.65;1.60;;;20.70;64.00;;;;;;5039742;28;20025;-62
2022/09/25 11:59:37;;;;;;;13.43;2.58;;;20.70;63.30;;;;;;5041585;28;20048;-62
2022/09/25 12:02:21;;;;;;;11.40;1.52;;;20.70;63.20;;;;;;5046227;28;20120;-61
2022/09/25 12:05:15;;;;;;;10.90;1.92;;;20.70;62.10;;;;;;5036447;28;20307;-63
2022/09/25 12:08:13;;;;;;;8.47;1.73;;;20.70;62.30;;;;;;5030196;28;20032;-63
2022/09/25 12:10:48;;;;;;;11.88;2.28;;;20.70;61.80;;;;;;5045068;28;20314;-63
2022/09/25 12:13:43;;;;;;;12.38;1.67;;;20.70;61.00;;;;;;5046688;28;20029;-62
2022/09/25 12:16:12;;;;;;;10.00;1.65;;;20.80;61.30;;;;;;5051067;28;20040;-62
2022/09/25 12:18:57;;;;;;;8.60;1.73;;;20.80;61.40;;;;;;5047073;28;20124;-62
2022/09/25 12:21:40;;;;;;;9.85;1.83;;;20.90;61.30;;;;;;5047833;28;20045;-62
2022/09/25 12:24:25;;;;;;;8.55;1.83;;;20.90;61.00;;;;;;5047860;28;20068;-62
2022/09/25 12:26:56;;;;;;;7.40;1.48;;;20.90;59.70;;;;;;5050122;28;20029;-62
2022/09/25 12:29:34;;;;;;;10.50;1.70;;;20.90;59.50;;;;;;5047476;28;20510;-62
2022/09/25 12:32:05;;;;;;;14.63;2.05;;;20.90;59.70;;;;;;5048531;28;20032;-62
2022/09/25 12:34:37;;;;;;;7.55;1.55;;;21.00;59.70;;;;;;5046886;28;20032;-62
2022/09/25 12:37:53;;;;;;;7.93;1.88;;;21.10;59.60;;;;;;5047502;28;20040;-63
2022/09/25 12:40:19;;;;;;;;;;;21.00;59.10;;;;;;5002277;28;20548;-63
2022/09/25 12:42:58;;;;;;;15.43;1.50;;;21.10;58.00;;;;;;4998491;28;19949;-61
2022/09/25 12:45:30;;;;;;;9.77;1.40;;;21.10;58.30;;;;;;4981849;28;20034;-62
2022/09/25 12:48:17;;;;;;;8.30;1.67;;;21.20;58.50;;;;;;4995639;28;20030;-62
2022/09/25 12:51:02;;;;;;;7.13;1.38;;;21.20;58.60;;;;;;4980915;28;20038;-63
2022/09/25 12:53:46;;;;;;;7.47;1.10;;;21.20;58.00;;;;;;4994100;28;20034;-63
2022/09/25 12:56:34;;;;;;;4.97;1.05;;;21.30;58.00;;;;;;5004610;28;20302;-62
2022/09/25 12:59:14;;;;;;;6.88;1.50;;;21.30;57.80;;;;;;4978931;28;20034;-63
2022/09/25 13:01:46;;;;;;;9.60;1.27;;;21.30;57.70;;;;;;5002219;28;20038;-62
2022/09/25 13:04:33;;;;;;;5.75;1.40;;;21.40;57.80;;;;;;4980970;28;20049;-63
2022/09/25 13:07:37;;;;;;;7.20;1.42;;;21.40;57.80;;;;;;4980883;28;20121;-63
2022/09/25 13:10:17;;;;;;;7.47;1.50;;;21.40;57.30;;;;;;4929268;29;20126;-63
2022/09/25 13:12:42;;;;;;;7.95;1.40;;;21.50;57.20;;;;;;4911121;29;20048;-62
2022/09/25 13:15:12;;;;;;;7.22;1.20;;;21.50;56.90;;;;;;4930904;28;20075;-62
2022/09/25 13:17:39;;;;;;;5.65;1.15;;;21.40;55.90;;;;;;4948839;28;20567;-63
2022/09/25 13:20:23;;;;;;;8.45;1.73;;;21.50;56.60;;;;;;4928036;28;20134;-62
2022/09/25 13:22:49;;;;;;;10.00;1.43;;;21.50;56.60;;;;;;4965032;28;20045;-62
2022/09/25 13:25:15;;;;;;;8.50;1.50;;;21.60;56.50;;;;;;4965208;28;20294;-62
2022/09/25 13:27:42;;;;;;;10.45;1.48;;;21.60;56.70;;;;;;4965602;28;20035;-62